Time;durP1;ratioP1;P1;durP2;ratioP2;P2;SDS_P1;SDS_P2;PMS_P1;PMS_P2;Temp;Humidity;BMP_temperature;BMP_pressure;BME280_temperature;BME280_humidity;BME280_pressure;Samples;Min_cycle;Max_cycle;Signal;HPM_P1;HPM_P2
2022/03/01 00:00:20;;;;;;;34.92;21.68;;;;;;;0.02;100.00;101932.54;1609051;88;21190;-86
2022/03/01 00:02:47;;;;;;;39.45;23.38;;;;;;;0.03;100.00;101931.23;1609321;88;21021;-85
2022/03/01 00:05:14;;;;;;;43.13;25.52;;;;;;;0.05;100.00;101929.52;1609443;88;21610;-86
2022/03/01 00:07:41;;;;;;;39.13;23.83;;;;;;;0.05;100.00;101934.64;1609369;88;21021;-86
2022/03/01 00:10:10;;;;;;;42.10;24.75;;;;;;;0.05;100.00;101932.08;1633397;86;21018;-87
2022/03/01 00:12:38;;;;;;;40.67;24.07;;;;;;;0.06;100.00;101938.03;1616466;86;21665;-86
2022/03/01 00:15:06;;;;;;;39.45;23.50;;;;;;;0.06;100.00;101936.34;1616216;87;21672;-86
2022/03/01 00:17:33;;;;;;;37.60;24.18;;;;;;;0.05;100.00;101936.33;1635651;86;21080;-89
2022/03/01 00:20:00;;;;;;;43.95;24.55;;;;;;;0.05;100.00;101941.04;1635372;86;21048;-88
2022/03/01 00:22:27;;;;;;;38.02;22.73;;;;;;;0.04;100.00;101938.05;1635993;86;21538;-88
2022/03/01 00:24:54;;;;;;;39.35;24.35;;;;;;;0.08;100.00;101946.11;1614975;86;21900;-86
2022/03/01 00:27:21;;;;;;;38.58;23.15;;;;;;;0.09;100.00;101946.98;1609472;88;21589;-88
2022/03/01 00:29:47;;;;;;;37.15;21.65;;;;;;;0.11;100.00;101947.82;1585876;89;21585;-88
2022/03/01 00:32:14;;;;;;;40.55;24.02;;;;;;;0.13;100.00;101954.63;1609342;88;21076;-86
2022/03/01 00:34:41;;;;;;;41.33;24.40;;;;;;;0.14;100.00;101951.20;1598769;87;21107;-85
2022/03/01 00:37:09;;;;;;;37.25;23.20;;;;;;;0.14;100.00;101953.76;1638784;86;21151;-84
2022/03/01 00:39:35;;;;;;;39.55;24.37;;;;;;;0.18;100.00;101959.70;1608813;87;21174;-89
2022/03/01 00:42:04;;;;;;;39.55;23.60;;;;;;;0.20;100.00;101951.98;1638621;86;21073;-85
2022/03/01 00:44:40;;;;;;;41.95;23.57;;;;;;;0.20;100.00;101950.27;1608304;86;21161;-84
2022/03/01 00:47:08;;;;;;;37.88;22.32;;;;;;;0.23;100.00;101952.80;1639082;85;21734;-86
2022/03/01 00:49:35;;;;;;;37.93;23.50;;;;;;;0.25;100.00;101948.52;1639144;85;21054;-86
2022/03/01 00:52:02;;;;;;;40.98;23.05;;;;;;;0.28;100.00;101947.64;1609806;85;21071;-86
2022/03/01 00:54:29;;;;;;;35.40;21.25;;;;;;;0.28;100.00;101947.19;1639462;85;21058;-87
2022/03/01 00:56:57;;;;;;;37.05;22.95;;;;;;;0.31;100.00;101945.89;1639481;85;21110;-88
2022/03/01 00:59:24;;;;;;;35.73;23.00;;;;;;;0.34;100.00;101945.00;1609456;87;21095;-87
2022/03/01 01:01:50;;;;;;;37.78;22.60;;;;;;;0.35;100.00;101949.27;1639471;85;21110;-87
2022/03/01 01:04:17;;;;;;;38.33;22.48;;;;;;;0.37;100.00;101946.67;1625715;86;21722;-86
2022/03/01 01:06:44;;;;;;;37.13;22.73;;;;;;;0.36;100.00;101938.59;1628418;87;22074;-86
2022/03/01 01:09:14;;;;;;;40.30;24.43;;;;;;;0.36;100.00;101934.75;1604201;87;21581;-87
2022/03/01 01:11:42;;;;;;;39.53;23.70;;;;;;;0.36;100.00;101931.74;1630802;88;21093;-87
2022/03/01 01:14:12;;;;;;;38.88;22.15;;;;;;;0.34;100.00;101924.95;1630717;86;21153;-87
2022/03/01 01:16:43;;;;;;;37.85;22.22;;;;;;;0.30;100.00;101924.13;1629894;86;21104;-86
2022/03/01 01:19:09;;;;;;;39.88;23.25;;;;;;;0.26;100.00;101922.04;1620384;88;21062;-89
2022/03/01 01:24:21;;;;;;;37.73;22.48;;;;;;;0.19;100.00;101909.30;1602936;88;21104;-88
2022/03/01 01:26:48;;;;;;;42.03;24.32;;;;;;;0.15;100.00;101911.05;1622015;86;21175;-85
2022/03/01 01:29:15;;;;;;;36.30;21.10;;;;;;;0.13;100.00;101912.35;1639488;86;21037;-85
2022/03/01 01:31:42;;;;;;;38.75;22.82;;;;;;;0.13;100.00;101918.76;1639650;86;21032;-85
2022/03/01 01:34:08;;;;;;;40.70;23.27;;;;;;;0.14;100.00;101911.91;1639733;86;21086;-86
2022/03/01 01:36:35;;;;;;;38.73;22.52;;;;;;;0.14;100.00;101899.09;1639087;86;21536;-86
2022/03/01 01:39:02;;;;;;;40.60;23.47;;;;;;;0.12;100.00;101893.16;1639809;86;21181;-86
2022/03/01 01:41:30;;;;;;;41.53;24.02;;;;;;;0.10;100.00;101892.33;1609103;86;21026;-86
2022/03/01 01:43:59;;;;;;;44.18;24.20;;;;;;;0.08;100.00;101894.05;1603995;88;21089;-86
2022/03/01 01:46:25;;;;;;;40.83;23.22;;;;;;;0.08;100.00;101900.45;1582207;88;21081;-85
2022/03/01 01:48:52;;;;;;;39.73;23.25;;;;;;;0.06;100.00;101902.17;1614097;87;21060;-85
2022/03/01 01:51:19;;;;;;;44.00;24.60;;;;;;;0.02;100.00;101903.92;1629829;86;21029;-85
2022/03/01 01:53:45;;;;;;;40.23;22.80;;;;;;;0.01;100.00;101898.82;1629629;86;21005;-85
2022/03/01 01:56:13;;;;;;;38.48;22.75;;;;;;;-0.02;100.00;101906.95;1613866;87;21010;-85
2022/03/01 01:58:40;;;;;;;40.05;24.27;;;;;;;-0.03;100.00;101901.41;1629541;86;21092;-85
2022/03/01 02:01:06;;;;;;;43.13;23.73;;;;;;;-0.04;100.00;101896.30;1614187;87;21677;-85
2022/03/01 02:03:33;;;;;;;42.93;24.07;;;;;;;-0.08;100.00;101885.69;1629534;87;21879;-86
2022/03/01 02:06:00;;;;;;;42.27;24.20;;;;;;;-0.08;100.00;101890.81;1629791;86;21101;-85
2022/03/01 02:08:31;;;;;;;40.43;23.57;;;;;;;-0.10;100.00;101874.16;1613835;87;21360;-85
2022/03/01 02:10:58;;;;;;;47.00;25.88;;;;;;;-0.09;100.00;101873.75;1629936;86;22698;-87
2022/03/01 02:13:26;;;;;;;45.80;26.65;;;;;;;-0.09;100.00;101864.34;1629489;87;21696;-85
2022/03/01 02:15:55;;;;;;;49.00;26.60;;;;;;;-0.09;100.00;101868.19;1629452;86;21826;-84
2022/03/01 02:18:23;;;;;;;48.27;25.70;;;;;;;-0.07;100.00;101866.88;1629690;87;21081;-84
2022/03/01 02:20:50;;;;;;;50.35;25.32;;;;;;;-0.08;100.00;101870.33;1614209;87;21123;-84
2022/03/01 02:23:16;;;;;;;45.12;24.10;;;;;;;-0.08;100.00;101858.36;1614006;87;21104;-87
2022/03/01 02:25:43;;;;;;;47.70;25.12;;;;;;;-0.09;100.00;101848.98;1630100;87;21088;-85
2022/03/01 02:28:10;;;;;;;49.05;25.97;;;;;;;-0.08;100.00;101846.84;1614146;87;21169;-84
2022/03/01 02:30:37;;;;;;;50.20;25.35;;;;;;;-0.09;100.00;101831.05;1614086;87;21139;-84
2022/03/01 02:33:04;;;;;;;43.80;25.20;;;;;;;-0.09;100.00;101838.73;1613898;87;21098;-84
2022/03/01 02:35:31;;;;;;;44.08;24.40;;;;;;;-0.09;100.00;101839.18;1614011;87;21198;-85
2022/03/01 02:37:58;;;;;;;50.58;26.30;;;;;;;-0.09;100.00;101843.85;1613715;87;21609;-85
2022/03/01 02:40:24;;;;;;;46.35;24.72;;;;;;;-0.09;100.00;101836.17;1629759;86;21957;-85
2022/03/01 02:42:51;;;;;;;49.20;25.17;;;;;;;-0.08;100.00;101833.20;1608020;87;21018;-85
2022/03/01 02:45:19;;;;;;;45.63;23.85;;;;;;;-0.06;100.00;101832.72;1613911;87;21089;-87
2022/03/01 02:47:47;;;;;;;51.35;25.80;;;;;;;-0.08;100.00;101818.66;1613774;87;21068;-86
2022/03/01 02:50:16;;;;;;;49.15;24.80;;;;;;;-0.08;100.00;101825.06;1613956;87;21547;-86
2022/03/01 02:52:44;;;;;;;45.70;24.92;;;;;;;-0.09;100.00;101818.69;1629667;87;21880;-88
2022/03/01 02:55:12;;;;;;;44.15;24.32;;;;;;;-0.08;100.00;101823.79;1629467;87;21614;-88
2022/03/01 02:57:40;;;;;;;53.52;25.92;;;;;;;-0.07;100.00;101820.36;1613936;87;21443;-85
2022/03/01 03:00:08;;;;;;;54.50;26.00;;;;;;;-0.06;100.00;101820.78;1613958;87;21104;-85
2022/03/01 03:02:35;;;;;;;51.00;26.05;;;;;;;-0.06;100.00;101814.38;1614257;87;21108;-85
2022/03/01 03:05:06;;;;;;;48.25;25.02;;;;;;;-0.05;100.00;101803.28;1614034;87;21062;-85
2022/03/01 03:07:33;;;;;;;42.80;23.32;;;;;;;-0.05;100.00;101793.03;1613652;87;21633;-85
2022/03/01 03:10:01;;;;;;;45.28;23.73;;;;;;;-0.05;100.00;101789.61;1629454;86;21049;-86
2022/03/01 03:12:29;;;;;;;47.13;24.05;;;;;;;-0.06;100.00;101784.94;1613895;87;21095;-86
2022/03/01 03:14:57;;;;;;;48.98;24.35;;;;;;;-0.06;100.00;101783.66;1611262;88;21032;-84
2022/03/01 03:17:24;;;;;;;49.15;24.55;;;;;;;-0.07;100.00;101781.95;1611473;89;21160;-85
2022/03/01 03:19:51;;;;;;;45.17;23.22;;;;;;;-0.07;100.00;101778.11;1610960;89;21098;-85
2022/03/01 03:22:18;;;;;;;45.17;23.10;;;;;;;-0.07;100.00;101772.99;1611473;89;21088;-85
2022/03/01 03:24:45;;;;;;;46.90;23.70;;;;;;;-0.07;100.00;101780.67;1611018;89;21536;-85
2022/03/01 03:27:12;;;;;;;47.05;22.70;;;;;;;-0.06;100.00;101790.05;1583904;89;21087;-86
2022/03/01 03:29:38;;;;;;;46.80;23.30;;;;;;;-0.05;100.00;101781.92;1583583;89;21526;-86
2022/03/01 03:32:07;;;;;;;45.33;22.75;;;;;;;-0.03;100.00;101785.33;1583493;89;21111;-87
2022/03/01 03:34:34;;;;;;;43.60;24.15;;;;;;;-0.03;100.00;101776.36;1583797;89;21059;-86
2022/03/01 03:37:01;;;;;;;40.03;21.15;;;;;;;-0.04;100.00;101778.05;1583891;89;21078;-84
2022/03/01 03:39:28;;;;;;;43.42;22.95;;;;;;;-0.03;100.00;101780.20;1583605;89;21158;-85
2022/03/01 03:41:55;;;;;;;44.27;22.48;;;;;;;-0.02;100.00;101780.17;1610929;89;21789;-86
2022/03/01 03:44:22;;;;;;;47.83;24.07;;;;;;;0.01;100.00;101779.73;1563343;89;21080;-84
2022/03/01 03:46:49;;;;;;;44.45;22.87;;;;;;;0.02;100.00;101779.70;1611013;89;20996;-84
2022/03/01 03:49:16;;;;;;;48.10;23.55;;;;;;;0.02;100.00;101783.98;1583101;89;21112;-84
2022/03/01 03:51:42;;;;;;;38.42;20.43;;;;;;;0.03;100.00;101780.56;1612544;87;21028;-87
2022/03/01 03:54:09;;;;;;;35.85;20.62;;;;;;;0.04;100.00;101783.55;1612486;87;21155;-86
2022/03/01 03:56:35;;;;;;;44.23;21.65;;;;;;;0.04;100.00;101777.97;1611994;87;22235;-86
2022/03/01 03:59:02;;;;;;;43.95;21.45;;;;;;;0.05;100.00;101781.37;1612441;87;21056;-87
2022/03/01 04:01:29;;;;;;;43.80;22.52;;;;;;;0.06;100.00;101784.34;1612385;87;21049;-86
2022/03/01 04:03:58;;;;;;;43.63;23.55;;;;;;;0.06;100.00;101784.34;1563197;87;21093;-86
2022/03/01 04:06:25;;;;;;;41.85;22.15;;;;;;;0.06;100.00;101788.19;1612264;87;21217;-87
2022/03/01 04:08:51;;;;;;;42.08;20.90;;;;;;;0.08;100.00;101800.55;1613369;88;20974;-85
2022/03/01 04:11:18;;;;;;;37.55;20.17;;;;;;;0.08;100.00;101792.42;1583748;87;21161;-87
2022/03/01 04:13:45;;;;;;;42.70;21.80;;;;;;;0.11;100.00;101805.66;1626462;87;21124;-88
2022/03/01 04:16:12;;;;;;;46.53;23.77;;;;;;;0.10;100.00;101807.80;1602615;87;21065;-87
2022/03/01 04:18:40;;;;;;;41.98;22.42;;;;;;;0.13;100.00;101811.58;1626173;87;21120;-85
2022/03/01 04:21:06;;;;;;;38.13;20.60;;;;;;;0.13;100.00;101805.17;1626042;87;21577;-86
2022/03/01 04:23:33;;;;;;;38.02;20.15;;;;;;;0.15;100.00;101817.13;1626065;86;21030;-86
2022/03/01 04:26:00;;;;;;;37.90;20.37;;;;;;;0.17;100.00;101825.20;1626314;87;21037;-86
2022/03/01 04:28:27;;;;;;;40.80;21.97;;;;;;;0.18;100.00;101829.46;1626498;86;21105;-87
2022/03/01 04:30:54;;;;;;;40.03;20.75;;;;;;;0.18;100.00;101830.33;1626116;87;21147;-86
2022/03/01 04:33:22;;;;;;;37.88;21.20;;;;;;;0.18;100.00;101822.64;1626318;86;21176;-88
2022/03/01 04:35:49;;;;;;;37.78;20.90;;;;;;;0.19;100.00;101832.02;1623157;86;21132;-87
2022/03/01 04:38:17;;;;;;;36.28;20.40;;;;;;;0.20;100.00;101845.22;1606409;86;21075;-84
2022/03/01 04:40:44;;;;;;;42.55;22.67;;;;;;;0.20;100.00;101852.08;1599646;88;21991;-86
2022/03/01 04:43:11;;;;;;;38.63;20.12;;;;;;;0.20;100.00;101848.23;1598413;87;21087;-87
2022/03/01 04:45:37;;;;;;;34.53;18.32;;;;;;;0.23;100.00;101854.61;1637095;86;21537;-87
2022/03/01 04:48:04;;;;;;;36.00;19.98;;;;;;;0.23;100.00;101854.16;1619433;87;21076;-87
2022/03/01 04:50:32;;;;;;;35.35;18.73;;;;;;;0.22;100.00;101853.75;1620647;86;21117;-85
2022/03/01 04:53:00;;;;;;;34.67;18.70;;;;;;;0.23;100.00;101843.91;1628314;86;21585;-86
2022/03/01 04:55:29;;;;;;;29.63;17.67;;;;;;;0.24;100.00;101848.18;1626022;86;21870;-86
2022/03/01 04:57:56;;;;;;;35.70;18.12;;;;;;;0.25;100.00;101858.84;1603510;88;21573;-87
2022/03/01 05:00:23;;;;;;;36.73;19.32;;;;;;;0.26;100.00;101865.67;1626041;86;21037;-85
2022/03/01 05:02:50;;;;;;;36.83;18.90;;;;;;;0.26;100.00;101864.39;1626206;87;21109;-85
2022/03/01 05:05:17;;;;;;;34.03;19.02;;;;;;;0.28;100.00;101865.19;1624738;86;21147;-86
2022/03/01 05:07:48;;;;;;;31.70;18.87;;;;;;;0.28;100.00;101866.92;1611786;87;21685;-86
2022/03/01 05:10:18;;;;;;;37.05;19.87;;;;;;;0.29;100.00;101872.02;1601950;86;21044;-86
2022/03/01 05:12:56;;;;;;;32.03;18.62;;;;;;;0.29;100.00;101870.73;1606289;87;26162;-87
2022/03/01 05:15:28;;;;;;;31.97;18.48;;;;;;;0.31;100.00;101867.73;1594337;89;21111;-90
2022/03/01 05:17:57;;;;;;;32.08;18.55;;;;;;;0.33;100.00;101869.44;1594498;88;21082;-87
2022/03/01 05:20:25;;;;;;;31.07;17.55;;;;;;;0.33;100.00;101872.83;1554136;90;21588;-87
2022/03/01 05:22:53;;;;;;;33.55;18.40;;;;;;;0.35;100.00;101872.83;1583789;89;21065;-88
2022/03/01 05:25:23;;;;;;;32.58;18.10;;;;;;;0.36;100.00;101866.84;1621839;86;21896;-87
2022/03/01 05:27:53;;;;;;;31.77;17.87;;;;;;;0.34;100.00;101866.00;1589725;87;21087;-87
2022/03/01 05:30:21;;;;;;;34.03;18.27;;;;;;;0.34;100.00;101864.72;1607600;87;21053;-89
2022/03/01 05:32:52;;;;;;;32.48;18.35;;;;;;;0.33;100.00;101863.86;1608764;87;21167;-87
2022/03/01 05:35:24;;;;;;;33.78;17.40;;;;;;;0.35;100.00;101861.30;1608265;87;21665;-86
2022/03/01 05:37:53;;;;;;;35.48;19.40;;;;;;;0.35;100.00;101857.45;1611922;85;21158;-87
2022/03/01 05:40:23;;;;;;;36.23;20.27;;;;;;;0.36;100.00;101860.44;1642821;85;21066;-86
2022/03/01 05:42:50;;;;;;;34.18;18.65;;;;;;;0.36;100.00;101855.31;1663623;86;21870;-83
2022/03/01 05:45:17;;;;;;;34.27;18.50;;;;;;;0.36;100.00;101859.16;1630656;86;21157;-83
2022/03/01 05:47:44;;;;;;;35.70;19.65;;;;;;;0.48;100.00;101858.98;1630463;86;21046;-81
2022/03/01 05:50:13;;;;;;;35.10;19.55;;;;;;;0.58;100.00;101855.44;1630468;87;21075;-81
2022/03/01 05:52:41;;;;;;;35.98;18.52;;;;;;;0.56;100.00;101858.45;1618436;86;21147;-80
2022/03/01 05:55:11;;;;;;;34.92;19.00;;;;;;;0.56;100.00;101859.73;1616101;86;21535;-79
2022/03/01 05:57:39;;;;;;;30.68;18.25;;;;;;;0.53;100.00;101860.20;1641962;85;21164;-79
2022/03/01 06:00:10;;;;;;;30.43;17.45;;;;;;;0.53;100.00;101867.90;1650850;85;21037;-79
2022/03/01 06:02:43;;;;;;;31.97;18.27;;;;;;;0.53;100.00;101861.49;1638557;85;21100;-80
2022/03/01 06:05:11;;;;;;;32.80;18.60;;;;;;;0.54;100.00;101861.91;1646601;85;21844;-81
2022/03/01 06:07:39;;;;;;;33.00;18.98;;;;;;;0.58;100.00;101860.56;1628057;86;21041;-81
2022/03/01 06:10:07;;;;;;;31.17;18.85;;;;;;;0.62;100.00;101860.09;1645655;85;21170;-81
2022/03/01 06:12:35;;;;;;;30.60;17.95;;;;;;;0.65;100.00;101864.33;1620992;86;21970;-83
2022/03/01 06:15:06;;;;;;;29.15;17.55;;;;;;;0.62;100.00;101857.08;1632211;86;21046;-81
2022/03/01 06:17:40;;;;;;;30.17;17.12;;;;;;;0.67;100.00;101857.02;1622850;87;21077;-82
2022/03/01 06:20:12;;;;;;;29.05;17.62;;;;;;;0.70;100.00;101856.13;1618231;85;21125;-83
2022/03/01 06:22:44;;;;;;;30.65;17.62;;;;;;;0.68;100.00;101851.48;1629025;85;21197;-82
2022/03/01 06:25:22;;;;;;;26.45;15.80;;;;;;;0.70;100.00;101854.84;1640017;85;21806;-82
2022/03/01 06:27:50;;;;;;;27.48;15.48;;;;;;;0.68;100.00;101860.45;1629849;86;21204;-82
2022/03/01 06:30:23;;;;;;;27.62;16.40;;;;;;;0.68;100.00;101857.89;1628929;86;21108;-83
2022/03/01 06:32:54;;;;;;;26.85;16.17;;;;;;;0.68;100.00;101857.89;1628901;86;21036;-83
2022/03/01 06:35:21;;;;;;;27.60;16.57;;;;;;;0.69;100.00;101853.14;1602273;87;21153;-81
2022/03/01 06:37:50;;;;;;;27.37;16.87;;;;;;;0.69;100.00;101851.86;1614967;86;21122;-83
2022/03/01 06:40:18;;;;;;;29.42;17.25;;;;;;;0.72;100.00;101859.52;1629761;86;21709;-83
2022/03/01 06:42:47;;;;;;;28.23;15.65;;;;;;;0.77;100.00;101857.31;1622885;85;21528;-83
2022/03/01 06:45:34;;;;;;;29.50;16.55;;;;;;;0.90;100.00;101863.53;1614435;87;21085;-83
2022/03/01 06:47:59;;;;;;;29.77;16.93;;;;;;;0.93;100.00;101863.05;1603063;86;21725;-83
2022/03/01 06:50:26;;;;;;;28.60;17.17;;;;;;;0.91;100.00;101867.37;1628879;87;21111;-83
2022/03/01 06:52:53;;;;;;;35.03;18.10;;;;;;;0.96;100.00;101867.73;1650504;86;21041;-83
2022/03/01 06:55:21;;;;;;;30.57;16.93;;;;;;;0.96;100.00;101866.45;1651169;85;21125;-83
2022/03/01 06:57:49;;;;;;;27.05;16.40;;;;;;;0.98;100.00;101868.11;1631006;85;21091;-83
2022/03/01 07:00:17;;;;;;;27.07;16.62;;;;;;;0.97;100.00;101860.00;1632318;86;21145;-85
2022/03/01 07:02:44;;;;;;;23.92;16.12;;;;;;;0.99;100.00;101863.41;1631883;86;21057;-86
2022/03/01 07:05:15;;;;;;;34.75;16.90;;;;;;;1.00;100.00;101857.86;1632992;86;21073;-85
2022/03/01 07:07:46;;;;;;;27.82;15.30;;;;;;;1.01;100.00;101862.95;1654110;86;21018;-86
2022/03/01 07:10:15;;;;;;;27.30;15.45;;;;;;;1.05;100.00;101859.45;1643390;85;21331;-86
2022/03/01 07:12:44;;;;;;;26.60;16.05;;;;;;;1.03;100.00;101853.94;1653967;85;21894;-87
2022/03/01 07:15:16;;;;;;;26.27;16.40;;;;;;;1.01;100.00;101851.41;1629885;86;21080;-88
2022/03/01 07:17:44;;;;;;;26.50;16.00;;;;;;;1.01;100.00;101854.39;1632414;86;21168;-86
2022/03/01 07:20:12;;;;;;;24.07;15.70;;;;;;;1.01;100.00;101856.95;1652462;86;21634;-88
2022/03/01 07:22:39;;;;;;;26.40;16.40;;;;;;;1.00;100.00;101854.00;1655296;86;21116;-88
2022/03/01 07:25:07;;;;;;;25.77;16.27;;;;;;;1.00;100.00;101852.27;1654427;85;21156;-90
2022/03/01 07:27:51;;;;;;;26.20;16.70;;;;;;;1.02;100.00;101847.11;1653240;86;22284;-88
2022/03/01 07:30:21;;;;;;;30.32;19.60;;;;;;;1.04;100.00;101847.94;1652427;86;21104;-88
2022/03/01 07:32:49;;;;;;;26.50;16.77;;;;;;;1.05;100.00;101852.20;1652038;86;21093;-86
2022/03/01 07:35:17;;;;;;;23.92;15.45;;;;;;;1.06;100.00;101845.76;1647848;86;21131;-87
2022/03/01 07:37:45;;;;;;;23.67;15.65;;;;;;;1.07;100.00;101841.50;1652236;85;22003;-88
2022/03/01 07:40:16;;;;;;;24.52;15.60;;;;;;;1.06;100.00;101838.06;1653607;86;21075;-87
2022/03/01 07:42:44;;;;;;;23.00;15.60;;;;;;;1.07;100.00;101844.06;1628341;86;21156;-85
2022/03/01 07:45:11;;;;;;;24.30;15.58;;;;;;;1.09;100.00;101838.44;1626503;87;21117;-87
2022/03/01 07:47:39;;;;;;;24.75;16.20;;;;;;;1.12;100.00;101839.69;1622384;87;21085;-87
2022/03/01 07:50:07;;;;;;;24.15;16.37;;;;;;;1.13;100.00;101830.27;1630704;85;21871;-87
2022/03/01 07:52:34;;;;;;;24.23;16.35;;;;;;;1.14;100.00;101838.38;1629821;86;21038;-86
2022/03/01 07:55:02;;;;;;;25.35;18.05;;;;;;;1.14;100.00;101840.52;1648321;85;21030;-87
2022/03/01 07:57:31;;;;;;;27.77;16.42;;;;;;;1.15;100.00;101833.66;1644474;86;21352;-87
2022/03/01 07:59:59;;;;;;;22.75;15.80;;;;;;;1.15;100.00;101832.38;1648593;85;21460;-87
2022/03/01 08:02:26;;;;;;;24.98;16.57;;;;;;;1.16;100.00;101836.64;1629363;86;21081;-84
2022/03/01 08:04:52;;;;;;;27.95;17.92;;;;;;;1.15;100.00;101838.79;1628568;85;21630;-86
2022/03/01 08:07:24;;;;;;;24.23;15.53;;;;;;;1.15;100.00;101824.67;1629223;86;21039;-87
2022/03/01 08:09:50;;;;;;;26.42;15.90;;;;;;;1.16;100.00;101834.08;1652125;85;21514;-85
2022/03/01 08:12:21;;;;;;;24.67;16.67;;;;;;;1.16;100.00;101831.06;1639369;85;21385;-86
2022/03/01 08:14:49;;;;;;;25.17;16.80;;;;;;;1.17;100.00;101830.64;1622207;86;21811;-86
2022/03/01 08:17:17;;;;;;;23.05;16.05;;;;;;;1.17;100.00;101830.19;1649980;85;21159;-86
2022/03/01 08:19:48;;;;;;;;;;;;;;;1.19;100.00;101830.19;1651278;85;21069;-87
2022/03/01 08:22:15;;;;;;;25.85;15.90;;;;;;;1.21;100.00;101832.27;1650467;85;20635;-86
2022/03/01 08:24:42;;;;;;;26.33;16.32;;;;;;;1.21;100.00;101827.13;1649851;86;21055;-87
2022/03/01 08:27:09;;;;;;;25.92;16.90;;;;;;;1.21;100.00;101830.56;1632374;86;21143;-87
2022/03/01 08:29:36;;;;;;;25.82;16.65;;;;;;;1.20;100.00;101823.73;1653463;85;21064;-86
2022/03/01 08:32:03;;;;;;;25.37;17.02;;;;;;;1.22;100.00;101818.56;1634192;85;21022;-87
2022/03/01 08:34:32;;;;;;;25.97;16.65;;;;;;;1.22;100.00;101827.13;1645541;84;21133;-87
2022/03/01 08:36:59;;;;;;;22.93;15.70;;;;;;;1.23;100.00;101831.39;1660101;85;21045;-85
2022/03/01 08:39:26;;;;;;;24.52;16.45;;;;;;;1.23;100.00;101833.09;1652072;85;21139;-85
2022/03/01 08:41:54;;;;;;;28.42;17.92;;;;;;;1.22;100.00;101832.27;1648736;85;21063;-85
2022/03/01 08:44:23;;;;;;;32.00;18.57;;;;;;;1.22;100.00;101832.27;1634487;85;21219;-86
2022/03/01 08:46:50;;;;;;;26.77;17.75;;;;;;;1.24;100.00;101825.36;1667484;84;21367;-85
2022/03/01 08:49:17;;;;;;;29.35;18.52;;;;;;;1.25;100.00;101824.49;1662480;84;21078;-85
2022/03/01 08:51:52;;;;;;;31.33;18.02;;;;;;;1.26;100.00;101814.64;1604985;85;21863;-86
2022/03/01 08:54:25;;;;;;;27.10;17.77;;;;;;;1.28;100.00;101815.92;1595661;86;21187;-84
2022/03/01 08:57:05;;;;;;;28.65;17.10;;;;;;;1.30;100.00;101818.45;1594745;89;21589;-83
2022/03/01 08:59:33;;;;;;;30.57;18.82;;;;;;;1.34;100.00;101823.52;1594534;88;21115;-84
2022/03/01 09:02:00;;;;;;;24.07;16.55;;;;;;;1.39;100.00;101823.44;1603519;88;21578;-84
2022/03/01 09:04:32;;;;;;;25.45;16.45;;;;;;;1.44;100.00;101818.22;1601834;86;21685;-84
2022/03/01 09:06:59;;;;;;;30.62;18.73;;;;;;;1.45;100.00;101823.32;1596473;87;21083;-85
2022/03/01 09:09:26;;;;;;;30.92;18.10;;;;;;;1.49;100.00;101822.83;1630875;87;21613;-83
2022/03/01 09:11:52;;;;;;;31.00;18.77;;;;;;;1.53;100.00;101825.31;1630186;86;21542;-84
2022/03/01 09:14:19;;;;;;;26.62;17.30;;;;;;;1.57;100.00;101831.24;1629928;86;21610;-84
2022/03/01 09:16:47;;;;;;;25.65;18.00;;;;;;;1.58;100.00;101829.92;1632047;85;21822;-85
2022/03/01 09:19:15;;;;;;;30.37;19.37;;;;;;;1.60;100.00;101829.91;1638698;86;21094;-85
2022/03/01 09:21:43;;;;;;;27.40;18.02;;;;;;;1.62;100.00;101826.86;1628785;86;21487;-84
2022/03/01 09:24:10;;;;;;;27.75;18.02;;;;;;;1.64;100.00;101825.57;1637842;85;21108;-84
2022/03/01 09:26:38;;;;;;;25.92;17.10;;;;;;;1.62;100.00;101812.73;1658851;84;21572;-85
2022/03/01 09:29:06;;;;;;;26.55;17.25;;;;;;;1.67;100.00;101810.09;1629141;86;21537;-85
2022/03/01 09:31:35;;;;;;;29.25;17.52;;;;;;;1.68;100.00;101812.61;1607462;87;21089;-85
2022/03/01 09:34:02;;;;;;;24.70;16.32;;;;;;;1.70;100.00;101805.73;1628429;86;21058;-86
2022/03/01 09:36:29;;;;;;;24.55;16.10;;;;;;;1.70;100.00;101805.73;1602018;87;21157;-85
2022/03/01 09:38:56;;;;;;;24.00;16.12;;;;;;;1.70;100.00;101808.30;1603596;87;21481;-85
2022/03/01 09:41:23;;;;;;;25.30;16.70;;;;;;;1.71;100.00;101818.16;1605699;87;21600;-85
2022/03/01 09:43:53;;;;;;;24.02;16.80;;;;;;;1.69;100.00;101810.46;1604225;88;22068;-84
2022/03/01 09:46:22;;;;;;;27.57;17.20;;;;;;;1.69;100.00;101804.48;1654922;84;21047;-84
2022/03/01 09:48:49;;;;;;;22.90;15.32;;;;;;;1.71;100.00;101802.30;1637739;86;21514;-85
2022/03/01 09:51:18;;;;;;;24.05;15.05;;;;;;;1.76;100.00;101800.92;1623941;86;21097;-85
2022/03/01 09:53:47;;;;;;;24.55;15.45;;;;;;;1.79;100.00;101799.59;1635099;86;21878;-86
2022/03/01 09:56:21;;;;;;;22.32;14.78;;;;;;;1.81;100.00;101796.53;1650862;85;21049;-87
2022/03/01 09:58:50;;;;;;;21.17;14.60;;;;;;;1.83;100.00;101796.08;1636033;86;21073;-84
2022/03/01 10:01:18;;;;;;;25.48;16.23;;;;;;;1.83;100.00;101793.51;1649104;86;21134;-85
2022/03/01 10:03:48;;;;;;;21.55;15.23;;;;;;;1.83;100.00;101783.23;1651953;85;21015;-85
2022/03/01 10:06:27;;;;;;;19.85;13.45;;;;;;;1.87;100.00;101790.44;1625638;86;26169;-85
2022/03/01 10:08:55;;;;;;;21.12;14.78;;;;;;;1.89;100.00;101787.41;1620132;87;21085;-86
2022/03/01 10:11:23;;;;;;;21.80;14.80;;;;;;;1.91;100.00;101784.38;1652598;85;21030;-86
2022/03/01 10:13:58;;;;;;;24.35;15.32;;;;;;;1.93;100.00;101779.20;1638979;85;21564;-85
2022/03/01 10:16:38;;;;;;;28.38;16.20;;;;;;;1.95;100.00;101781.31;1620293;85;21042;-84
2022/03/01 10:19:16;;;;;;;27.87;17.20;;;;;;;1.97;100.00;101779.53;1631453;86;21114;-83
2022/03/01 10:21:43;;;;;;;28.40;18.10;;;;;;;2.00;100.00;101770.48;1648852;86;21022;-82
2022/03/01 10:24:10;;;;;;;28.10;16.40;;;;;;;2.03;100.00;101771.72;1648194;85;21515;-84
2022/03/01 10:26:39;;;;;;;27.48;17.10;;;;;;;2.04;100.00;101770.39;1650303;85;21010;-84
2022/03/01 10:29:06;;;;;;;21.95;15.55;;;;;;;2.07;100.00;101774.62;1679621;85;22052;-83
2022/03/01 10:31:34;;;;;;;24.55;15.65;;;;;;;2.10;100.00;101776.27;1660422;85;21203;-84
2022/03/01 10:34:07;;;;;;;26.35;15.72;;;;;;;2.11;100.00;101772.41;1659792;85;21805;-86
2022/03/01 10:36:48;;;;;;;18.37;12.82;;;;;;;2.12;100.00;101782.23;1656211;85;21545;-84
2022/03/01 10:39:23;;;;;;;21.37;13.70;;;;;;;2.10;100.00;101781.41;1657296;84;21611;-84
2022/03/01 10:42:03;;;;;;;22.52;14.65;;;;;;;2.07;100.00;101780.21;1625355;86;21092;-86
2022/03/01 10:44:31;;;;;;;20.30;13.43;;;;;;;2.07;100.00;101781.05;1596380;88;21102;-85
2022/03/01 10:47:03;;;;;;;20.97;14.50;;;;;;;2.03;100.00;101791.83;1581701;89;21493;-85
2022/03/01 10:49:35;;;;;;;22.20;14.65;;;;;;;2.03;100.00;101791.83;1590238;88;21070;-87
2022/03/01 10:52:09;;;;;;;20.30;14.25;;;;;;;2.03;100.00;101790.54;1595000;88;21120;-85
2022/03/01 10:54:51;;;;;;;25.12;15.83;;;;;;;2.01;100.00;101784.58;1633243;85;21090;-86
2022/03/01 10:57:23;;;;;;;23.83;15.30;;;;;;;2.03;100.00;101789.70;1638644;85;21075;-92
2022/03/01 10:59:54;;;;;;;25.40;15.88;;;;;;;2.05;100.00;101788.80;1671403;85;21027;-92
2022/03/01 11:02:22;;;;;;;;;;;;;;;2.06;100.00;101785.77;1654114;85;21786;-87
2022/03/01 11:04:52;;;;;;;21.75;14.68;;;;;;;2.07;100.00;101784.89;1651044;85;20577;-86
2022/03/01 11:07:21;;;;;;;32.40;16.85;;;;;;;2.08;100.00;101787.88;1600613;87;21138;-87
2022/03/01 11:09:51;;;;;;;23.18;14.83;;;;;;;2.04;100.00;101780.67;1643697;85;21146;-87
2022/03/01 11:12:21;;;;;;;26.57;17.00;;;;;;;2.02;100.00;101782.87;1644566;87;21539;-87
2022/03/01 11:15:29;;;;;;;29.65;17.40;;;;;;;1.99;100.00;101780.35;1640850;87;21091;-85
2022/03/01 11:18:07;;;;;;;25.35;15.98;;;;;;;1.98;100.00;101775.67;1621412;87;21090;-86